sensor_id;sensor_type;location;lat;lon;timestamp;P1;durP1;ratioP1;P2;durP2;ratioP2
55706;SDS011;41608;45.384;20.394;2022-07-23T00:02:10;14.25;;;6.50;;
55706;SDS011;41608;45.384;20.394;2022-07-23T00:04:36;19.23;;;7.82;;
55706;SDS011;41608;45.384;20.394;2022-07-23T00:07:02;15.10;;;7.40;;
55706;SDS011;41608;45.384;20.394;2022-07-23T00:09:29;14.52;;;6.93;;
55706;SDS011;41608;45.384;20.394;2022-07-23T00:11:56;18.48;;;7.43;;
55706;SDS011;41608;45.384;20.394;2022-07-23T00:14:22;17.55;;;9.05;;
55706;SDS011;41608;45.384;20.394;2022-07-23T00:16:48;17.60;;;7.22;;
55706;SDS011;41608;45.384;20.394;2022-07-23T00:19:14;19.48;;;7.35;;
55706;SDS011;41608;45.384;20.394;2022-07-23T00:21:40;16.80;;;6.70;;
55706;SDS011;41608;45.384;20.394;2022-07-23T00:24:07;18.58;;;7.43;;
55706;SDS011;41608;45.384;20.394;2022-07-23T00:26:33;19.52;;;7.18;;
55706;SDS011;41608;45.384;20.394;2022-07-23T00:28:59;19.88;;;7.88;;
55706;SDS011;41608;45.384;20.394;2022-07-23T00:31:25;14.82;;;5.80;;
55706;SDS011;41608;45.384;20.394;2022-07-23T00:33:52;14.50;;;6.97;;
55706;SDS011;41608;45.384;20.394;2022-07-23T00:36:21;13.60;;;7.50;;
55706;SDS011;41608;45.384;20.394;2022-07-23T00:38:48;17.45;;;6.20;;
55706;SDS011;41608;45.384;20.394;2022-07-23T00:41:14;17.05;;;9.05;;
55706;SDS011;41608;45.384;20.394;2022-07-23T00:43:41;20.05;;;6.80;;
55706;SDS011;41608;45.384;20.394;2022-07-23T00:46:07;14.75;;;6.80;;
55706;SDS011;41608;45.384;20.394;2022-07-23T00:48:34;13.95;;;6.43;;
55706;SDS011;41608;45.384;20.394;2022-07-23T00:51:00;11.60;;;6.13;;
55706;SDS011;41608;45.384;20.394;2022-07-23T00:53:26;12.35;;;7.03;;
55706;SDS011;41608;45.384;20.394;2022-07-23T00:55:53;18.70;;;6.32;;
55706;SDS011;41608;45.384;20.394;2022-07-23T00:58:19;15.57;;;6.80;;
55706;SDS011;41608;45.384;20.394;2022-07-23T01:00:45;18.60;;;6.35;;
55706;SDS011;41608;45.384;20.394;2022-07-23T01:03:11;16.98;;;7.00;;
55706;SDS011;41608;45.384;20.394;2022-07-23T01:05:38;15.27;;;6.88;;
55706;SDS011;41608;45.384;20.394;2022-07-23T01:08:05;17.00;;;7.57;;
55706;SDS011;41608;45.384;20.394;2022-07-23T01:10:32;13.63;;;6.85;;
55706;SDS011;41608;45.384;20.394;2022-07-23T01:13:02;14.73;;;7.75;;
55706;SDS011;41608;45.384;20.394;2022-07-23T01:15:29;13.15;;;6.93;;
55706;SDS011;41608;45.384;20.394;2022-07-23T01:17:57;15.55;;;7.40;;
55706;SDS011;41608;45.384;20.394;2022-07-23T01:20:23;13.18;;;6.45;;
55706;SDS011;41608;45.384;20.394;2022-07-23T01:22:52;15.48;;;6.72;;
55706;SDS011;41608;45.384;20.394;2022-07-23T01:25:19;15.25;;;6.70;;
55706;SDS011;41608;45.384;20.394;2022-07-23T01:27:45;13.70;;;6.88;;
55706;SDS011;41608;45.384;20.394;2022-07-23T01:30:11;15.88;;;7.00;;
55706;SDS011;41608;45.384;20.394;2022-07-23T01:32:37;17.85;;;7.85;;
55706;SDS011;41608;45.384;20.394;2022-07-23T01:35:03;18.33;;;7.50;;
55706;SDS011;41608;45.384;20.394;2022-07-23T01:37:30;20.00;;;8.52;;
55706;SDS011;41608;45.384;20.394;2022-07-23T01:39:56;19.80;;;8.13;;
55706;SDS011;41608;45.384;20.394;2022-07-23T01:42:22;17.45;;;7.63;;
55706;SDS011;41608;45.384;20.394;2022-07-23T01:44:48;17.33;;;8.00;;
55706;SDS011;41608;45.384;20.394;2022-07-23T01:47:14;14.25;;;7.38;;
55706;SDS011;41608;45.384;20.394;2022-07-23T01:49:40;23.52;;;7.78;;
55706;SDS011;41608;45.384;20.394;2022-07-23T01:52:06;19.13;;;8.27;;
55706;SDS011;41608;45.384;20.394;2022-07-23T01:54:36;17.23;;;7.43;;
55706;SDS011;41608;45.384;20.394;2022-07-23T01:57:02;20.75;;;8.20;;
55706;SDS011;41608;45.384;20.394;2022-07-23T01:59:29;16.88;;;7.45;;
55706;SDS011;41608;45.384;20.394;2022-07-23T02:01:55;19.88;;;7.97;;
55706;SDS011;41608;45.384;20.394;2022-07-23T02:04:21;18.50;;;7.20;;
55706;SDS011;41608;45.384;20.394;2022-07-23T02:06:48;24.98;;;8.27;;
55706;SDS011;41608;45.384;20.394;2022-07-23T02:09:14;20.33;;;8.52;;
55706;SDS011;41608;45.384;20.394;2022-07-23T02:11:40;18.75;;;8.05;;
55706;SDS011;41608;45.384;20.394;2022-07-23T02:14:06;16.20;;;7.80;;
55706;SDS011;41608;45.384;20.394;2022-07-23T02:16:32;18.23;;;8.40;;
55706;SDS011;41608;45.384;20.394;2022-07-23T02:18:59;22.33;;;8.57;;
55706;SDS011;41608;45.384;20.394;2022-07-23T02:21:25;24.50;;;9.40;;
55706;SDS011;41608;45.384;20.394;2022-07-23T02:23:51;20.02;;;8.65;;
55706;SDS011;41608;45.384;20.394;2022-07-23T02:26:17;18.25;;;7.10;;
55706;SDS011;41608;45.384;20.394;2022-07-23T02:28:43;20.02;;;7.97;;
55706;SDS011;41608;45.384;20.394;2022-07-23T02:31:09;17.25;;;7.82;;
55706;SDS011;41608;45.384;20.394;2022-07-23T02:33:35;21.73;;;7.18;;
55706;SDS011;41608;45.384;20.394;2022-07-23T02:36:04;16.10;;;7.43;;
55706;SDS011;41608;45.384;20.394;2022-07-23T02:38:30;20.88;;;7.45;;
55706;SDS011;41608;45.384;20.394;2022-07-23T02:40:56;19.92;;;7.30;;
55706;SDS011;41608;45.384;20.394;2022-07-23T02:43:22;13.32;;;6.63;;
55706;SDS011;41608;45.384;20.394;2022-07-23T02:45:48;18.73;;;7.45;;
55706;SDS011;41608;45.384;20.394;2022-07-23T02:48:14;20.65;;;6.95;;
55706;SDS011;41608;45.384;20.394;2022-07-23T02:50:41;20.05;;;7.10;;
55706;SDS011;41608;45.384;20.394;2022-07-23T02:53:07;14.32;;;6.43;;
55706;SDS011;41608;45.384;20.394;2022-07-23T02:55:33;17.70;;;6.20;;
55706;SDS011;41608;45.384;20.394;2022-07-23T02:57:59;13.30;;;6.55;;
55706;SDS011;41608;45.384;20.394;2022-07-23T03:00:25;13.95;;;5.97;;
55706;SDS011;41608;45.384;20.394;2022-07-23T03:02:51;13.95;;;6.75;;
55706;SDS011;41608;45.384;20.394;2022-07-23T03:05:17;12.23;;;5.72;;
55706;SDS011;41608;45.384;20.394;2022-07-23T03:07:43;12.25;;;5.60;;
55706;SDS011;41608;45.384;20.394;2022-07-23T03:10:09;15.43;;;6.00;;
55706;SDS011;41608;45.384;20.394;2022-07-23T03:12:35;16.10;;;6.38;;
55706;SDS011;41608;45.384;20.394;2022-07-23T03:15:02;12.25;;;5.88;;
55706;SDS011;41608;45.384;20.394;2022-07-23T03:17:28;18.02;;;7.82;;
55706;SDS011;41608;45.384;20.394;2022-07-23T03:19:54;15.13;;;6.38;;
55706;SDS011;41608;45.384;20.394;2022-07-23T03:22:20;12.02;;;6.57;;
55706;SDS011;41608;45.384;20.394;2022-07-23T03:24:46;17.77;;;7.40;;
55706;SDS011;41608;45.384;20.394;2022-07-23T03:27:22;19.55;;;8.32;;
55706;SDS011;41608;45.384;20.394;2022-07-23T03:29:48;11.93;;;4.82;;
55706;SDS011;41608;45.384;20.394;2022-07-23T03:32:15;17.20;;;6.88;;
55706;SDS011;41608;45.384;20.394;2022-07-23T03:34:41;15.00;;;5.78;;
55706;SDS011;41608;45.384;20.394;2022-07-23T03:37:07;12.13;;;6.05;;
55706;SDS011;41608;45.384;20.394;2022-07-23T03:39:33;10.50;;;6.32;;
55706;SDS011;41608;45.384;20.394;2022-07-23T03:41:59;12.20;;;6.20;;
55706;SDS011;41608;45.384;20.394;2022-07-23T03:44:25;9.45;;;6.43;;
55706;SDS011;41608;45.384;20.394;2022-07-23T03:46:51;17.83;;;6.45;;
55706;SDS011;41608;45.384;20.394;2022-07-23T03:49:17;15.27;;;6.13;;
55706;SDS011;41608;45.384;20.394;2022-07-23T03:51:43;13.35;;;6.93;;
55706;SDS011;41608;45.384;20.394;2022-07-23T03:54:09;9.20;;;5.72;;
55706;SDS011;41608;45.384;20.394;2022-07-23T03:56:36;12.52;;;5.65;;
55706;SDS011;41608;45.384;20.394;2022-07-23T03:59:02;9.25;;;7.28;;
55706;SDS011;41608;45.384;20.394;2022-07-23T04:01:30;12.52;;;6.38;;
55706;SDS011;41608;45.384;20.394;2022-07-23T04:03:57;15.43;;;6.50;;
55706;SDS011;41608;45.384;20.394;2022-07-23T04:06:23;13.50;;;6.70;;
55706;SDS011;41608;45.384;20.394;2022-07-23T04:08:49;18.40;;;7.95;;
55706;SDS011;41608;45.384;20.394;2022-07-23T04:11:15;15.18;;;7.93;;
55706;SDS011;41608;45.384;20.394;2022-07-23T04:13:41;17.48;;;7.80;;
55706;SDS011;41608;45.384;20.394;2022-07-23T04:16:09;12.00;;;6.68;;
55706;SDS011;41608;45.384;20.394;2022-07-23T04:18:36;14.98;;;6.72;;
55706;SDS011;41608;45.384;20.394;2022-07-23T04:21:02;28.52;;;8.68;;
55706;SDS011;41608;45.384;20.394;2022-07-23T04:23:32;17.15;;;7.07;;
55706;SDS011;41608;45.384;20.394;2022-07-23T04:25:58;18.58;;;7.22;;
55706;SDS011;41608;45.384;20.394;2022-07-23T04:28:24;17.30;;;6.55;;
55706;SDS011;41608;45.384;20.394;2022-07-23T04:30:50;13.77;;;7.20;;
55706;SDS011;41608;45.384;20.394;2022-07-23T04:33:17;20.63;;;6.70;;
55706;SDS011;41608;45.384;20.394;2022-07-23T04:35:43;14.50;;;6.50;;
55706;SDS011;41608;45.384;20.394;2022-07-23T04:38:09;20.30;;;6.85;;
55706;SDS011;41608;45.384;20.394;2022-07-23T04:40:35;17.45;;;6.70;;
55706;SDS011;41608;45.384;20.394;2022-07-23T04:43:01;11.65;;;5.75;;
55706;SDS011;41608;45.384;20.394;2022-07-23T04:45:27;15.27;;;6.35;;
55706;SDS011;41608;45.384;20.394;2022-07-23T04:47:54;15.65;;;6.20;;
55706;SDS011;41608;45.384;20.394;2022-07-23T04:50:22;17.23;;;6.38;;
55706;SDS011;41608;45.384;20.394;2022-07-23T04:52:49;10.43;;;5.32;;
55706;SDS011;41608;45.384;20.394;2022-07-23T04:55:15;16.13;;;6.00;;
55706;SDS011;41608;45.384;20.394;2022-07-23T04:57:41;17.77;;;7.35;;
55706;SDS011;41608;45.384;20.394;2022-07-23T05:00:07;13.82;;;6.05;;
55706;SDS011;41608;45.384;20.394;2022-07-23T05:02:34;12.90;;;5.50;;
55706;SDS011;41608;45.384;20.394;2022-07-23T05:05:00;13.85;;;6.82;;
55706;SDS011;41608;45.384;20.394;2022-07-23T05:07:26;13.13;;;7.10;;
55706;SDS011;41608;45.384;20.394;2022-07-23T05:09:52;11.73;;;5.72;;
55706;SDS011;41608;45.384;20.394;2022-07-23T05:12:18;14.52;;;5.28;;
55706;SDS011;41608;45.384;20.394;2022-07-23T05:14:44;23.52;;;7.70;;
55706;SDS011;41608;45.384;20.394;2022-07-23T05:17:10;16.20;;;5.78;;
55706;SDS011;41608;45.384;20.394;2022-07-23T05:19:36;22.17;;;6.10;;
55706;SDS011;41608;45.384;20.394;2022-07-23T05:22:02;10.30;;;4.68;;
55706;SDS011;41608;45.384;20.394;2022-07-23T05:24:28;16.40;;;5.63;;
55706;SDS011;41608;45.384;20.394;2022-07-23T05:26:57;12.13;;;5.90;;
55706;SDS011;41608;45.384;20.394;2022-07-23T05:29:23;11.65;;;6.05;;
55706;SDS011;41608;45.384;20.394;2022-07-23T05:31:49;13.52;;;5.40;;
55706;SDS011;41608;45.384;20.394;2022-07-23T05:34:15;23.17;;;7.10;;
55706;SDS011;41608;45.384;20.394;2022-07-23T05:36:41;15.02;;;6.18;;
55706;SDS011;41608;45.384;20.394;2022-07-23T05:39:07;24.00;;;19.08;;
55706;SDS011;41608;45.384;20.394;2022-07-23T05:41:33;16.20;;;6.70;;
55706;SDS011;41608;45.384;20.394;2022-07-23T05:43:59;14.77;;;6.03;;
55706;SDS011;41608;45.384;20.394;2022-07-23T05:46:25;16.00;;;6.22;;
55706;SDS011;41608;45.384;20.394;2022-07-23T05:48:51;16.85;;;5.93;;
55706;SDS011;41608;45.384;20.394;2022-07-23T05:51:24;14.00;;;5.95;;
55706;SDS011;41608;45.384;20.394;2022-07-23T05:53:50;10.90;;;4.97;;
55706;SDS011;41608;45.384;20.394;2022-07-23T05:56:19;13.05;;;4.65;;
55706;SDS011;41608;45.384;20.394;2022-07-23T05:58:45;11.80;;;6.13;;
55706;SDS011;41608;45.384;20.394;2022-07-23T06:01:11;16.40;;;6.63;;
55706;SDS011;41608;45.384;20.394;2022-07-23T06:03:38;9.98;;;5.57;;
55706;SDS011;41608;45.384;20.394;2022-07-23T06:06:04;13.05;;;5.43;;
55706;SDS011;41608;45.384;20.394;2022-07-23T06:08:31;10.43;;;5.72;;
55706;SDS011;41608;45.384;20.394;2022-07-23T06:10:59;8.57;;;4.93;;
55706;SDS011;41608;45.384;20.394;2022-07-23T06:13:25;14.02;;;5.00;;
55706;SDS011;41608;45.384;20.394;2022-07-23T06:15:51;10.18;;;5.05;;
55706;SDS011;41608;45.384;20.394;2022-07-23T06:18:17;9.52;;;5.40;;
55706;SDS011;41608;45.384;20.394;2022-07-23T06:20:43;12.75;;;4.13;;
55706;SDS011;41608;45.384;20.394;2022-07-23T06:23:09;10.00;;;4.22;;
55706;SDS011;41608;45.384;20.394;2022-07-23T06:25:37;9.98;;;4.03;;
55706;SDS011;41608;45.384;20.394;2022-07-23T06:28:03;10.00;;;6.15;;
55706;SDS011;41608;45.384;20.394;2022-07-23T06:30:31;12.30;;;4.68;;
55706;SDS011;41608;45.384;20.394;2022-07-23T06:32:57;8.05;;;4.22;;
55706;SDS011;41608;45.384;20.394;2022-07-23T06:35:23;7.50;;;4.43;;
55706;SDS011;41608;45.384;20.394;2022-07-23T06:37:50;12.20;;;5.32;;
55706;SDS011;41608;45.384;20.394;2022-07-23T06:40:16;7.80;;;4.25;;
55706;SDS011;41608;45.384;20.394;2022-07-23T06:42:42;9.15;;;3.95;;
55706;SDS011;41608;45.384;20.394;2022-07-23T06:45:08;14.10;;;5.60;;
55706;SDS011;41608;45.384;20.394;2022-07-23T06:47:34;9.77;;;4.38;;
55706;SDS011;41608;45.384;20.394;2022-07-23T06:50:00;10.32;;;4.50;;
55706;SDS011;41608;45.384;20.394;2022-07-23T06:52:26;15.38;;;6.03;;
55706;SDS011;41608;45.384;20.394;2022-07-23T06:54:52;12.50;;;5.20;;
55706;SDS011;41608;45.384;20.394;2022-07-23T06:57:19;12.77;;;5.03;;
55706;SDS011;41608;45.384;20.394;2022-07-23T06:59:46;10.82;;;4.90;;
55706;SDS011;41608;45.384;20.394;2022-07-23T07:02:12;16.52;;;4.95;;
55706;SDS011;41608;45.384;20.394;2022-07-23T07:04:38;17.60;;;4.97;;
55706;SDS011;41608;45.384;20.394;2022-07-23T07:07:04;10.20;;;4.35;;
55706;SDS011;41608;45.384;20.394;2022-07-23T07:09:30;15.95;;;4.68;;
55706;SDS011;41608;45.384;20.394;2022-07-23T07:11:57;14.48;;;5.63;;
55706;SDS011;41608;45.384;20.394;2022-07-23T07:14:23;9.55;;;4.10;;
55706;SDS011;41608;45.384;20.394;2022-07-23T07:16:49;12.50;;;4.80;;
55706;SDS011;41608;45.384;20.394;2022-07-23T07:19:15;11.70;;;4.88;;
55706;SDS011;41608;45.384;20.394;2022-07-23T07:21:41;12.02;;;5.10;;
55706;SDS011;41608;45.384;20.394;2022-07-23T07:24:07;8.43;;;4.95;;
55706;SDS011;41608;45.384;20.394;2022-07-23T07:26:33;11.93;;;5.38;;
55706;SDS011;41608;45.384;20.394;2022-07-23T07:29:00;14.35;;;5.30;;
55706;SDS011;41608;45.384;20.394;2022-07-23T07:31:26;9.43;;;5.88;;
55706;SDS011;41608;45.384;20.394;2022-07-23T07:33:52;19.92;;;6.85;;
55706;SDS011;41608;45.384;20.394;2022-07-23T07:36:18;12.90;;;7.78;;
55706;SDS011;41608;45.384;20.394;2022-07-23T07:38:44;17.98;;;7.03;;
55706;SDS011;41608;45.384;20.394;2022-07-23T07:41:10;13.38;;;5.75;;
55706;SDS011;41608;45.384;20.394;2022-07-23T07:43:37;13.95;;;5.43;;
55706;SDS011;41608;45.384;20.394;2022-07-23T07:46:03;11.18;;;7.07;;
55706;SDS011;41608;45.384;20.394;2022-07-23T07:48:30;8.88;;;4.93;;
55706;SDS011;41608;45.384;20.394;2022-07-23T07:50:56;9.50;;;5.55;;
55706;SDS011;41608;45.384;20.394;2022-07-23T07:53:22;7.72;;;5.05;;
55706;SDS011;41608;45.384;20.394;2022-07-23T07:55:48;10.35;;;4.60;;
55706;SDS011;41608;45.384;20.394;2022-07-23T07:58:14;9.52;;;4.80;;
55706;SDS011;41608;45.384;20.394;2022-07-23T08:00:40;13.00;;;5.35;;
55706;SDS011;41608;45.384;20.394;2022-07-23T08:03:06;9.52;;;5.28;;
55706;SDS011;41608;45.384;20.394;2022-07-23T08:05:32;8.57;;;4.53;;
55706;SDS011;41608;45.384;20.394;2022-07-23T08:07:59;10.00;;;4.85;;
55706;SDS011;41608;45.384;20.394;2022-07-23T08:10:26;10.63;;;4.28;;
55706;SDS011;41608;45.384;20.394;2022-07-23T08:12:53;7.25;;;4.75;;
55706;SDS011;41608;45.384;20.394;2022-07-23T08:15:20;10.85;;;4.03;;
55706;SDS011;41608;45.384;20.394;2022-07-23T08:17:47;8.45;;;4.70;;
55706;SDS011;41608;45.384;20.394;2022-07-23T08:20:14;10.35;;;4.90;;
55706;SDS011;41608;45.384;20.394;2022-07-23T08:25:29;12.55;;;5.18;;
55706;SDS011;41608;45.384;20.394;2022-07-23T08:27:55;9.05;;;5.38;;
55706;SDS011;41608;45.384;20.394;2022-07-23T08:30:22;13.13;;;5.18;;
55706;SDS011;41608;45.384;20.394;2022-07-23T08:32:52;11.13;;;4.75;;
55706;SDS011;41608;45.384;20.394;2022-07-23T08:35:22;10.23;;;5.35;;
55706;SDS011;41608;45.384;20.394;2022-07-23T08:37:48;14.38;;;5.07;;
55706;SDS011;41608;45.384;20.394;2022-07-23T08:40:14;7.70;;;5.03;;
55706;SDS011;41608;45.384;20.394;2022-07-23T08:42:40;7.25;;;3.65;;
55706;SDS011;41608;45.384;20.394;2022-07-23T08:45:07;8.35;;;5.13;;
55706;SDS011;41608;45.384;20.394;2022-07-23T08:47:35;10.25;;;4.45;;
55706;SDS011;41608;45.384;20.394;2022-07-23T08:50:03;15.23;;;5.90;;
55706;SDS011;41608;45.384;20.394;2022-07-23T08:52:30;9.35;;;6.97;;
55706;SDS011;41608;45.384;20.394;2022-07-23T08:54:56;11.98;;;6.70;;
55706;SDS011;41608;45.384;20.394;2022-07-23T08:57:22;15.82;;;7.53;;
55706;SDS011;41608;45.384;20.394;2022-07-23T08:59:48;12.30;;;6.45;;
55706;SDS011;41608;45.384;20.394;2022-07-23T09:02:14;10.45;;;7.05;;
55706;SDS011;41608;45.384;20.394;2022-07-23T09:04:40;12.45;;;6.22;;
55706;SDS011;41608;45.384;20.394;2022-07-23T09:07:07;13.88;;;6.57;;
55706;SDS011;41608;45.384;20.394;2022-07-23T09:09:36;18.27;;;5.93;;
55706;SDS011;41608;45.384;20.394;2022-07-23T09:12:06;10.80;;;6.05;;
55706;SDS011;41608;45.384;20.394;2022-07-23T09:14:37;7.50;;;4.50;;
55706;SDS011;41608;45.384;20.394;2022-07-23T09:17:13;9.60;;;5.05;;
55706;SDS011;41608;45.384;20.394;2022-07-23T09:19:40;9.93;;;5.18;;
55706;SDS011;41608;45.384;20.394;2022-07-23T09:22:22;7.15;;;4.38;;
55706;SDS011;41608;45.384;20.394;2022-07-23T09:30:15;9.02;;;4.30;;
55706;SDS011;41608;45.384;20.394;2022-07-23T09:32:41;10.60;;;4.68;;
55706;SDS011;41608;45.384;20.394;2022-07-23T09:35:08;8.98;;;4.68;;
55706;SDS011;41608;45.384;20.394;2022-07-23T09:37:34;5.45;;;3.38;;
55706;SDS011;41608;45.384;20.394;2022-07-23T09:40:07;9.98;;;3.92;;
55706;SDS011;41608;45.384;20.394;2022-07-23T09:42:34;8.20;;;5.45;;
55706;SDS011;41608;45.384;20.394;2022-07-23T09:45:06;7.60;;;3.70;;
55706;SDS011;41608;45.384;20.394;2022-07-23T09:47:37;9.20;;;4.38;;
55706;SDS011;41608;45.384;20.394;2022-07-23T09:52:42;8.05;;;3.33;;
55706;SDS011;41608;45.384;20.394;2022-07-23T09:55:08;7.22;;;3.72;;
55706;SDS011;41608;45.384;20.394;2022-07-23T09:57:34;10.52;;;4.70;;
55706;SDS011;41608;45.384;20.394;2022-07-23T10:00:02;9.15;;;4.10;;
55706;SDS011;41608;45.384;20.394;2022-07-23T10:02:29;15.10;;;4.03;;
55706;SDS011;41608;45.384;20.394;2022-07-23T10:04:57;7.15;;;3.33;;
55706;SDS011;41608;45.384;20.394;2022-07-23T10:07:23;5.50;;;3.70;;
55706;SDS011;41608;45.384;20.394;2022-07-23T10:09:52;5.68;;;3.72;;
55706;SDS011;41608;45.384;20.394;2022-07-23T10:12:19;9.25;;;3.40;;
55706;SDS011;41608;45.384;20.394;2022-07-23T10:14:45;18.23;;;4.35;;
55706;SDS011;41608;45.384;20.394;2022-07-23T10:17:12;6.88;;;3.03;;
55706;SDS011;41608;45.384;20.394;2022-07-23T10:19:38;16.50;;;3.55;;
55706;SDS011;41608;45.384;20.394;2022-07-23T10:22:06;11.15;;;4.40;;
55706;SDS011;41608;45.384;20.394;2022-07-23T10:29:55;9.38;;;4.00;;
55706;SDS011;41608;45.384;20.394;2022-07-23T10:37:39;9.82;;;3.95;;
55706;SDS011;41608;45.384;20.394;2022-07-23T10:42:35;6.82;;;3.20;;
55706;SDS011;41608;45.384;20.394;2022-07-23T10:45:02;8.65;;;3.83;;
55706;SDS011;41608;45.384;20.394;2022-07-23T10:47:47;10.30;;;3.53;;
55706;SDS011;41608;45.384;20.394;2022-07-23T10:53:09;8.35;;;3.88;;
55706;SDS011;41608;45.384;20.394;2022-07-23T10:57:55;10.70;;;3.70;;
55706;SDS011;41608;45.384;20.394;2022-07-23T11:00:22;12.38;;;4.78;;
55706;SDS011;41608;45.384;20.394;2022-07-23T11:02:50;7.80;;;3.65;;
55706;SDS011;41608;45.384;20.394;2022-07-23T11:05:17;8.10;;;4.13;;
55706;SDS011;41608;45.384;20.394;2022-07-23T11:13:25;6.85;;;4.18;;
55706;SDS011;41608;45.384;20.394;2022-07-23T11:24:15;6.72;;;5.22;;
55706;SDS011;41608;45.384;20.394;2022-07-23T11:26:46;6.68;;;4.00;;
55706;SDS011;41608;45.384;20.394;2022-07-23T11:34:34;9.13;;;3.67;;
55706;SDS011;41608;45.384;20.394;2022-07-23T11:37:01;11.82;;;3.95;;
55706;SDS011;41608;45.384;20.394;2022-07-23T11:39:28;6.22;;;4.72;;
55706;SDS011;41608;45.384;20.394;2022-07-23T11:41:55;8.60;;;4.47;;
55706;SDS011;41608;45.384;20.394;2022-07-23T11:44:32;9.23;;;4.00;;
55706;SDS011;41608;45.384;20.394;2022-07-23T11:46:59;7.50;;;4.13;;
55706;SDS011;41608;45.384;20.394;2022-07-23T11:49:25;8.13;;;4.15;;
55706;SDS011;41608;45.384;20.394;2022-07-23T11:52:08;6.45;;;3.80;;
55706;SDS011;41608;45.384;20.394;2022-07-23T11:54:35;9.60;;;3.85;;
55706;SDS011;41608;45.384;20.394;2022-07-23T11:57:02;5.60;;;3.38;;
55706;SDS011;41608;45.384;20.394;2022-07-23T11:59:31;8.48;;;3.80;;
55706;SDS011;41608;45.384;20.394;2022-07-23T12:04:24;9.38;;;3.40;;
55706;SDS011;41608;45.384;20.394;2022-07-23T12:06:50;7.63;;;3.75;;
55706;SDS011;41608;45.384;20.394;2022-07-23T12:09:16;6.38;;;3.47;;
55706;SDS011;41608;45.384;20.394;2022-07-23T12:12:00;10.10;;;3.92;;
55706;SDS011;41608;45.384;20.394;2022-07-23T12:14:27;8.32;;;4.15;;
55706;SDS011;41608;45.384;20.394;2022-07-23T12:17:09;8.63;;;3.85;;
55706;SDS011;41608;45.384;20.394;2022-07-23T12:19:35;8.15;;;4.07;;
55706;SDS011;41608;45.384;20.394;2022-07-23T12:22:01;7.43;;;4.25;;
55706;SDS011;41608;45.384;20.394;2022-07-23T12:24:27;7.63;;;4.40;;
55706;SDS011;41608;45.384;20.394;2022-07-23T12:27:12;8.95;;;4.10;;
55706;SDS011;41608;45.384;20.394;2022-07-23T12:29:39;9.63;;;3.95;;
55706;SDS011;41608;45.384;20.394;2022-07-23T12:32:26;9.57;;;4.00;;
55706;SDS011;41608;45.384;20.394;2022-07-23T12:35:04;6.03;;;4.00;;
55706;SDS011;41608;45.384;20.394;2022-07-23T12:39:57;10.73;;;3.63;;
55706;SDS011;41608;45.384;20.394;2022-07-23T12:42:23;7.75;;;4.25;;
55706;SDS011;41608;45.384;20.394;2022-07-23T12:45:08;7.30;;;4.13;;
55706;SDS011;41608;45.384;20.394;2022-07-23T12:47:52;8.75;;;4.20;;
55706;SDS011;41608;45.384;20.394;2022-07-23T12:50:42;7.95;;;4.20;;
55706;SDS011;41608;45.384;20.394;2022-07-23T12:53:12;9.95;;;4.18;;
55706;SDS011;41608;45.384;20.394;2022-07-23T12:55:40;7.43;;;4.25;;
55706;SDS011;41608;45.384;20.394;2022-07-23T12:58:10;5.65;;;3.72;;
55706;SDS011;41608;45.384;20.394;2022-07-23T13:03:22;7.18;;;4.18;;
55706;SDS011;41608;45.384;20.394;2022-07-23T13:05:48;8.30;;;4.03;;
55706;SDS011;41608;45.384;20.394;2022-07-23T13:08:14;9.43;;;5.82;;
55706;SDS011;41608;45.384;20.394;2022-07-23T13:10:40;5.30;;;3.58;;
55706;SDS011;41608;45.384;20.394;2022-07-23T13:13:10;8.68;;;3.88;;
55706;SDS011;41608;45.384;20.394;2022-07-23T13:15:36;7.18;;;4.40;;
55706;SDS011;41608;45.384;20.394;2022-07-23T13:18:02;7.35;;;4.65;;
55706;SDS011;41608;45.384;20.394;2022-07-23T13:20:28;8.02;;;4.55;;
55706;SDS011;41608;45.384;20.394;2022-07-23T13:22:56;8.57;;;4.35;;
55706;SDS011;41608;45.384;20.394;2022-07-23T13:25:22;8.55;;;4.93;;
55706;SDS011;41608;45.384;20.394;2022-07-23T13:27:48;8.45;;;4.00;;
55706;SDS011;41608;45.384;20.394;2022-07-23T13:30:15;8.30;;;3.75;;
55706;SDS011;41608;45.384;20.394;2022-07-23T13:32:41;9.05;;;4.72;;
55706;SDS011;41608;45.384;20.394;2022-07-23T13:35:09;7.82;;;4.40;;
55706;SDS011;41608;45.384;20.394;2022-07-23T13:37:36;12.50;;;5.38;;
55706;SDS011;41608;45.384;20.394;2022-07-23T13:40:03;10.10;;;3.92;;
55706;SDS011;41608;45.384;20.394;2022-07-23T13:42:29;7.78;;;4.60;;
55706;SDS011;41608;45.384;20.394;2022-07-23T13:44:55;12.10;;;4.20;;
55706;SDS011;41608;45.384;20.394;2022-07-23T13:47:21;6.10;;;3.25;;
55706;SDS011;41608;45.384;20.394;2022-07-23T13:49:47;9.52;;;5.18;;
55706;SDS011;41608;45.384;20.394;2022-07-23T13:52:13;8.63;;;4.78;;
55706;SDS011;41608;45.384;20.394;2022-07-23T13:54:40;7.35;;;3.85;;
55706;SDS011;41608;45.384;20.394;2022-07-23T13:57:06;9.88;;;4.05;;
55706;SDS011;41608;45.384;20.394;2022-07-23T13:59:34;10.43;;;3.75;;
55706;SDS011;41608;45.384;20.394;2022-07-23T14:02:01;7.43;;;4.20;;
55706;SDS011;41608;45.384;20.394;2022-07-23T14:04:28;5.63;;;3.55;;
55706;SDS011;41608;45.384;20.394;2022-07-23T14:06:54;8.18;;;3.90;;
55706;SDS011;41608;45.384;20.394;2022-07-23T14:09:20;8.50;;;3.45;;
55706;SDS011;41608;45.384;20.394;2022-07-23T14:11:46;7.28;;;3.78;;
55706;SDS011;41608;45.384;20.394;2022-07-23T14:14:13;7.18;;;4.57;;
55706;SDS011;41608;45.384;20.394;2022-07-23T14:16:39;6.57;;;4.38;;
55706;SDS011;41608;45.384;20.394;2022-07-23T14:19:05;8.05;;;3.92;;
55706;SDS011;41608;45.384;20.394;2022-07-23T14:21:31;10.35;;;4.30;;
55706;SDS011;41608;45.384;20.394;2022-07-23T14:23:57;6.53;;;4.25;;
55706;SDS011;41608;45.384;20.394;2022-07-23T14:26:23;6.47;;;4.47;;
55706;SDS011;41608;45.384;20.394;2022-07-23T14:28:50;7.55;;;4.13;;
55706;SDS011;41608;45.384;20.394;2022-07-23T14:31:16;8.35;;;4.47;;
55706;SDS011;41608;45.384;20.394;2022-07-23T14:33:42;9.00;;;4.15;;
55706;SDS011;41608;45.384;20.394;2022-07-23T14:36:08;10.20;;;4.20;;
55706;SDS011;41608;45.384;20.394;2022-07-23T14:38:34;8.05;;;4.53;;
55706;SDS011;41608;45.384;20.394;2022-07-23T14:41:00;9.55;;;4.25;;
55706;SDS011;41608;45.384;20.394;2022-07-23T14:43:26;6.03;;;3.88;;
55706;SDS011;41608;45.384;20.394;2022-07-23T14:45:52;8.40;;;3.83;;
55706;SDS011;41608;45.384;20.394;2022-07-23T14:48:19;8.23;;;4.28;;
55706;SDS011;41608;45.384;20.394;2022-07-23T14:50:45;5.55;;;4.30;;
55706;SDS011;41608;45.384;20.394;2022-07-23T14:53:11;7.00;;;4.13;;
55706;SDS011;41608;45.384;20.394;2022-07-23T14:55:39;9.93;;;3.92;;
55706;SDS011;41608;45.384;20.394;2022-07-23T14:58:05;6.18;;;4.18;;
55706;SDS011;41608;45.384;20.394;2022-07-23T15:00:31;8.13;;;4.03;;
55706;SDS011;41608;45.384;20.394;2022-07-23T15:02:58;12.68;;;5.00;;
55706;SDS011;41608;45.384;20.394;2022-07-23T15:05:24;8.38;;;4.05;;
55706;SDS011;41608;45.384;20.394;2022-07-23T15:07:50;6.03;;;3.83;;
55706;SDS011;41608;45.384;20.394;2022-07-23T15:10:16;6.32;;;4.20;;
55706;SDS011;41608;45.384;20.394;2022-07-23T15:12:42;6.00;;;4.20;;
55706;SDS011;41608;45.384;20.394;2022-07-23T15:15:08;8.02;;;4.22;;
55706;SDS011;41608;45.384;20.394;2022-07-23T15:17:35;7.60;;;3.90;;
55706;SDS011;41608;45.384;20.394;2022-07-23T15:20:01;9.18;;;3.78;;
55706;SDS011;41608;45.384;20.394;2022-07-23T15:22:27;8.32;;;4.00;;